This is the latest recevied weather packets stored in our database for station/object W1REE. If no packets are shown the sender has not sent any weather packets the latest 10 day(s).
| Time | Temp. | Humidity | Pressure | Rain* | Wind** | Luminosity | Snow |
|---|---|---|---|---|---|---|---|
| 1778164054 | 12.78° C | 37% | 1020.1 hPa | 0 mm | - | 389 W/m² | - |
| 1778163751 | 11.67° C | 38% | 1020.2 hPa | 0 mm | - | 364 W/m² | - |
| 1778163447 | 13.89° C | 34% | 1020.2 hPa | 0 mm | - | 343 W/m² | - |
| 1778163145 | 14.44° C | 28% | 1020.4 hPa | 0 mm | - | 329 W/m² | - |
| 1778162840 | 12.78° C | 33% | 1020.5 hPa | 0 mm | - | 305 W/m² | - |
| 1778162539 | 11.67° C | 34% | 1020.4 hPa | 0 mm | - | 283 W/m² | - |
| 1778162235 | 10.56° C | 40% | 1020.4 hPa | 0 mm | - | 259 W/m² | - |
| 1778161932 | 10° C | 38% | 1020.6 hPa | 0 mm | - | 239 W/m² | - |
| 1778161628 | 9.44° C | 41% | 1020.2 hPa | 0 mm | - | 223 W/m² | - |
| 1778161325 | 8.89° C | 42% | 1020.5 hPa | 0 mm | - | 206 W/m² | - |
| 1778161021 | 8.89° C | 43% | 1020.4 hPa | 0 mm | - | 190 W/m² | - |
| 1778160718 | 7.78° C | 44% | 1020.4 hPa | 0 mm | - | 171 W/m² | - |
| 1778160415 | 7.78° C | 45% | 1020.4 hPa | 0 mm | - | 154 W/m² | - |
| 1778160111 | 7.22° C | 46% | 1020.4 hPa | 0 mm | - | 162 W/m² | - |
| 1778159808 | 7.22° C | 46% | 1020.2 hPa | 0 mm | - | 101 W/m² | - |
| 1778159506 | 6.67° C | 46% | 1020.1 hPa | 0 mm | - | 91 W/m² | - |
| 1778159202 | 6.67° C | 47% | 1020.1 hPa | 0 mm | - | 83 W/m² | - |
| 1778158900 | 6.11° C | 47% | 1020.4 hPa | 0 mm | - | 82 W/m² | - |
| 1778158599 | 6.11° C | 47% | 1020.2 hPa | 0 mm | - | 50 W/m² | - |
| 1778158296 | 5.56° C | 49% | 1020.2 hPa | 0 mm | - | 34 W/m² | - |
| 1778157992 | 5.56° C | 49% | 1020.1 hPa | 0 mm | - | 30 W/m² | - |
| 1778157690 | 5° C | 49% | 1020.1 hPa | 0 mm | - | 26 W/m² | - |
| 1778157388 | 5° C | 50% | 1019.9 hPa | 0 mm | - | 23 W/m² | - |
| 1778157085 | 4.44° C | 51% | 1020 hPa | 0 mm | - | 21 W/m² | - |
| 1778156780 | 3.89° C | 53% | 1020.1 hPa | 0 mm | - | 19 W/m² | - |
* Rain latest hour (hover to see other rain measurements)
** Current wind speed in m/s (hover to see current wind gust speed)